Time;durP1;ratioP1;P1;durP2;ratioP2;P2;SDS_P1;SDS_P2;PMS_P1;PMS_P2;Temp;Humidity;BMP_temperature;BMP_pressure;BME280_temperature;BME280_humidity;BME280_pressure;Samples;Min_cycle;Max_cycle;Signal;HPM_P1;HPM_P2
2023/02/11 00:02:08;;;;;;;17.63;10.38;;;7.50;99.90;;;;;;5060046;28;20055;-43
2023/02/11 00:04:34;;;;;;;13.55;9.70;;;7.50;99.90;;;;;;5059261;28;20091;-43
2023/02/11 00:07:00;;;;;;;18.55;10.48;;;7.50;99.90;;;;;;5060102;28;20419;-42
2023/02/11 00:09:26;;;;;;;16.70;9.82;;;7.50;99.90;;;;;;5060083;28;20824;-43
2023/02/11 00:11:52;;;;;;;13.32;8.65;;;7.50;99.90;;;;;;5059378;28;20024;-43
2023/02/11 00:14:20;;;;;;;14.88;8.50;;;7.50;99.90;;;;;;5060168;28;20599;-42
2023/02/11 00:16:45;;;;;;;13.68;8.18;;;7.50;99.90;;;;;;5059538;28;20472;-42
2023/02/11 00:19:11;;;;;;;14.55;8.85;;;7.50;99.90;;;;;;5058895;28;20055;-42
2023/02/11 00:21:37;;;;;;;18.20;8.55;;;7.50;99.90;;;;;;5059334;28;20741;-42
2023/02/11 00:24:03;;;;;;;14.43;7.82;;;7.50;99.90;;;;;;5059498;28;20132;-43
2023/02/11 00:26:31;;;;;;;14.65;7.88;;;7.50;99.90;;;;;;5059462;28;20090;-43
2023/02/11 00:28:58;;;;;;;16.50;7.63;;;7.50;99.90;;;;;;5059074;28;20028;-42
2023/02/11 00:31:24;;;;;;;15.23;8.45;;;7.50;99.90;;;;;;5059618;28;20276;-43
2023/02/11 00:33:50;;;;;;;18.27;8.77;;;7.50;99.90;;;;;;5058093;28;20547;-43
2023/02/11 00:36:18;;;;;;;17.33;7.55;;;7.50;99.90;;;;;;5059736;28;20035;-43
2023/02/11 00:38:51;;;;;;;15.38;7.30;;;7.50;99.90;;;;;;5058883;28;20029;-43
2023/02/11 00:41:18;;;;;;;14.35;7.07;;;7.50;99.90;;;;;;5059097;28;20050;-43
2023/02/11 00:43:44;;;;;;;14.80;7.82;;;7.50;99.90;;;;;;5058997;28;20617;-43
2023/02/11 00:46:10;;;;;;;11.50;7.15;;;7.50;99.90;;;;;;5059100;28;20032;-44
2023/02/11 00:48:36;;;;;;;15.50;7.45;;;7.50;99.90;;;;;;5058382;28;20036;-42
2023/02/11 00:51:03;;;;;;;13.05;7.50;;;7.50;99.90;;;;;;5059028;28;20063;-43
2023/02/11 00:53:31;;;;;;;15.13;7.47;;;7.50;99.90;;;;;;5059081;28;20045;-43
2023/02/11 00:55:57;;;;;;;16.60;7.53;;;7.50;99.90;;;;;;5057527;28;20747;-43
2023/02/11 00:58:26;;;;;;;13.05;7.10;;;7.50;99.90;;;;;;5059772;28;20029;-42
2023/02/11 01:00:53;;;;;;;15.05;6.97;;;7.50;99.90;;;;;;5057524;28;20123;-43
2023/02/11 01:03:19;;;;;;;10.32;6.72;;;7.50;99.90;;;;;;5058726;28;20033;-42
2023/02/11 01:05:44;;;;;;;16.10;6.28;;;7.50;99.90;;;;;;5059145;28;20769;-43
2023/02/11 01:08:10;;;;;;;13.38;7.07;;;7.50;99.90;;;;;;5058435;28;20356;-43
2023/02/11 01:10:36;;;;;;;14.13;6.40;;;7.50;99.90;;;;;;5058494;28;20108;-42
2023/02/11 01:13:03;;;;;;;15.13;6.55;;;7.50;99.90;;;;;;5059025;28;20498;-43
2023/02/11 01:15:28;;;;;;;14.23;6.82;;;7.50;99.90;;;;;;5058027;28;20043;-43
2023/02/11 01:17:54;;;;;;;13.35;6.10;;;7.50;99.90;;;;;;5059091;28;20482;-43
2023/02/11 01:20:26;;;;;;;14.90;6.80;;;7.50;99.90;;;;;;5058698;28;20505;-42
2023/02/11 01:22:52;;;;;;;11.73;7.50;;;7.50;99.90;;;;;;5058210;28;20048;-43
2023/02/11 01:25:20;;;;;;;10.63;5.85;;;7.50;99.90;;;;;;5059023;28;20362;-43
2023/02/11 01:27:46;;;;;;;11.68;5.85;;;7.40;99.90;;;;;;5058797;28;20028;-43
2023/02/11 01:30:18;;;;;;;11.40;6.07;;;7.40;99.90;;;;;;5058149;28;20031;-43
2023/02/11 01:32:44;;;;;;;13.65;6.47;;;7.40;99.90;;;;;;5058158;28;20745;-43
2023/02/11 01:35:09;;;;;;;11.55;5.85;;;7.40;99.90;;;;;;5058327;28;20036;-44
2023/02/11 01:37:35;;;;;;;12.65;6.30;;;7.30;99.90;;;;;;5057945;28;20028;-44
2023/02/11 01:40:03;;;;;;;11.13;5.85;;;7.30;99.90;;;;;;5058763;28;20107;-44
2023/02/11 01:42:28;;;;;;;11.57;5.55;;;7.30;99.90;;;;;;5058947;28;20033;-42
2023/02/11 01:44:56;;;;;;;12.98;5.82;;;7.30;99.90;;;;;;5057813;28;20057;-43
2023/02/11 01:47:22;;;;;;;12.52;5.53;;;7.20;99.90;;;;;;5059538;28;20044;-43
2023/02/11 01:49:55;;;;;;;14.45;6.32;;;7.30;99.90;;;;;;5058772;28;20036;-43
2023/02/11 01:52:24;;;;;;;9.73;5.30;;;7.20;99.90;;;;;;5054533;28;20078;-43
2023/02/11 01:57:40;;;;;;;11.80;5.22;;;7.30;99.90;;;;;;5055686;28;20090;-43
2023/02/11 02:00:26;;;;;;;10.20;5.47;;;7.40;99.90;;;;;;5058579;28;20829;-43
2023/02/11 02:03:13;;;;;;;12.18;5.80;;;7.40;99.90;;;;;;5055934;28;20044;-43
2023/02/11 02:05:51;;;;;;;13.07;5.72;;;7.40;99.90;;;;;;5057924;28;20103;-43
2023/02/11 02:08:21;;;;;;;11.40;5.38;;;7.40;99.90;;;;;;5063084;28;20023;-43
2023/02/11 02:10:52;;;;;;;14.95;5.82;;;7.40;99.90;;;;;;5061962;28;20016;-43
2023/02/11 02:13:19;;;;;;;13.43;6.60;;;7.40;99.90;;;;;;5062251;28;20125;-42
2023/02/11 02:15:56;;;;;;;16.38;6.35;;;7.40;99.90;;;;;;5062071;28;20807;-44
2023/02/11 02:18:31;;;;;;;20.13;6.70;;;7.40;99.90;;;;;;5060207;28;20031;-43
2023/02/11 02:21:28;;;;;;;16.52;6.53;;;7.40;99.90;;;;;;5062406;28;20047;-44
2023/02/11 02:24:18;;;;;;;14.00;6.32;;;7.40;99.90;;;;;;5052397;28;20051;-43
2023/02/11 02:27:01;;;;;;;14.57;6.93;;;7.40;99.90;;;;;;5061363;28;20017;-43
2023/02/11 02:29:27;;;;;;;16.20;6.28;;;7.40;99.90;;;;;;5062454;28;20112;-42
2023/02/11 02:32:22;;;;;;;15.27;6.25;;;7.30;99.90;;;;;;5061702;28;20024;-42
2023/02/11 02:35:25;;;;;;;14.73;6.78;;;7.40;99.90;;;;;;5061434;28;20040;-42
2023/02/11 02:38:00;;;;;;;12.05;6.32;;;7.40;99.90;;;;;;5038369;28;20051;-43
2023/02/11 02:40:34;;;;;;;17.13;6.90;;;7.30;99.90;;;;;;5061255;28;20024;-43
2023/02/11 02:43:01;;;;;;;9.73;5.60;;;7.40;99.90;;;;;;5061429;28;20016;-43
2023/02/11 02:45:26;;;;;;;15.48;6.25;;;7.40;99.90;;;;;;5061273;28;20539;-43
2023/02/11 02:47:52;;;;;;;10.95;5.80;;;7.30;99.90;;;;;;5060025;28;20020;-44
2023/02/11 02:50:24;;;;;;;12.27;5.35;;;7.30;99.90;;;;;;5062001;28;20740;-43
2023/02/11 02:53:08;;;;;;;15.30;6.37;;;7.30;99.90;;;;;;5060506;28;20025;-43
2023/02/11 02:55:33;;;;;;;15.63;7.30;;;7.30;99.90;;;;;;5060176;28;20116;-43
2023/02/11 02:58:07;;;;;;;13.70;6.50;;;7.30;99.90;;;;;;5060849;28;20028;-43
2023/02/11 03:00:57;;;;;;;23.48;7.00;;;7.30;99.90;;;;;;5060039;28;20028;-43
2023/02/11 03:03:48;;;;;;;11.80;6.50;;;7.30;99.90;;;;;;5061007;28;20040;-43
2023/02/11 03:06:36;;;;;;;14.50;6.63;;;7.30;99.90;;;;;;5060923;28;20028;-43
2023/02/11 03:09:14;;;;;;;15.07;6.70;;;7.30;99.90;;;;;;5059990;28;20063;-43
2023/02/11 03:11:39;;;;;;;10.75;6.30;;;7.30;99.90;;;;;;5061293;28;20021;-43
2023/02/11 03:14:09;;;;;;;16.10;6.60;;;7.30;99.90;;;;;;5060666;28;20711;-43
2023/02/11 03:16:38;;;;;;;18.63;7.40;;;7.30;99.90;;;;;;5060287;28;20029;-43
2023/02/11 03:19:25;;;;;;;11.73;6.35;;;7.20;99.90;;;;;;5060277;28;20023;-43
2023/02/11 03:21:53;;;;;;;15.73;6.78;;;7.20;99.90;;;;;;5059972;28;20041;-43
2023/02/11 03:24:35;;;;;;;18.95;7.60;;;7.20;99.90;;;;;;5060961;28;20070;-43
2023/02/11 03:27:09;;;;;;;16.73;6.72;;;7.30;99.90;;;;;;5060434;28;20406;-45
2023/02/11 03:30:14;;;;;;;17.27;7.22;;;7.20;99.90;;;;;;5048780;28;20033;-43
2023/02/11 03:32:48;;;;;;;16.27;7.53;;;7.20;99.90;;;;;;5039580;28;20065;-42
2023/02/11 03:35:19;;;;;;;17.70;7.55;;;7.20;99.90;;;;;;5058120;28;20068;-43
2023/02/11 03:37:52;;;;;;;14.43;7.57;;;7.20;99.90;;;;;;5059834;28;20035;-43
2023/02/11 03:40:24;;;;;;;16.55;7.30;;;7.20;99.90;;;;;;5061124;28;20029;-43
2023/02/11 03:43:12;;;;;;;16.98;7.72;;;7.20;99.90;;;;;;5038994;28;20047;-43
2023/02/11 03:45:39;;;;;;;12.82;7.40;;;7.20;99.90;;;;;;5057393;28;20044;-43
2023/02/11 03:48:11;;;;;;;13.38;7.53;;;7.30;99.90;;;;;;5059754;28;20033;-43
2023/02/11 03:50:38;;;;;;;15.73;8.40;;;7.30;99.90;;;;;;5059255;28;20135;-44
2023/02/11 03:53:05;;;;;;;13.05;7.35;;;7.30;99.90;;;;;;5059942;28;20543;-44
2023/02/11 03:55:35;;;;;;;16.90;8.60;;;7.30;99.90;;;;;;5059510;28;20028;-44
2023/02/11 03:58:01;;;;;;;15.85;7.93;;;7.30;99.90;;;;;;5058981;28;20113;-43
2023/02/11 04:00:32;;;;;;;16.60;7.35;;;7.30;99.90;;;;;;5059676;28;20025;-44
2023/02/11 04:02:57;;;;;;;15.68;7.55;;;7.30;99.90;;;;;;5059886;28;20043;-44
2023/02/11 04:05:23;;;;;;;18.95;8.55;;;7.30;99.90;;;;;;5059731;28;20024;-44
2023/02/11 04:07:48;;;;;;;15.07;8.15;;;7.30;99.90;;;;;;5059669;28;20102;-44
2023/02/11 04:10:14;;;;;;;18.30;8.38;;;7.30;99.90;;;;;;5060265;28;20097;-44
2023/02/11 04:12:40;;;;;;;13.98;7.65;;;7.30;99.90;;;;;;5059088;28;20024;-44
2023/02/11 04:15:06;;;;;;;14.35;8.63;;;7.30;99.90;;;;;;5059046;28;20032;-44
2023/02/11 04:17:31;;;;;;;13.43;8.40;;;7.30;99.90;;;;;;5059372;28;20082;-44
2023/02/11 04:19:57;;;;;;;18.75;9.73;;;7.30;99.90;;;;;;5058220;28;20028;-44
2023/02/11 04:22:22;;;;;;;16.13;8.20;;;7.30;99.90;;;;;;5060083;28;20043;-43
2023/02/11 04:24:48;;;;;;;16.75;8.43;;;7.40;99.90;;;;;;5058812;28;20372;-44
2023/02/11 04:27:14;;;;;;;18.52;8.77;;;7.40;99.90;;;;;;5059860;28;20380;-44
2023/02/11 04:29:45;;;;;;;14.15;7.70;;;7.40;99.90;;;;;;5058496;28;20021;-44
2023/02/11 04:32:11;;;;;;;14.65;8.88;;;7.40;99.90;;;;;;5057438;28;20028;-44
2023/02/11 04:34:37;;;;;;;14.25;7.88;;;7.40;99.90;;;;;;5060103;28;20463;-44
2023/02/11 04:37:03;;;;;;;14.57;8.05;;;7.40;99.90;;;;;;5059387;28;20020;-44
2023/02/11 04:39:28;;;;;;;13.98;8.05;;;7.40;99.90;;;;;;5059299;28;20575;-44
2023/02/11 04:41:54;;;;;;;17.83;9.27;;;7.40;99.90;;;;;;5058813;28;20077;-44
2023/02/11 04:44:19;;;;;;;14.00;8.60;;;7.40;99.90;;;;;;5059517;28;20054;-44
2023/02/11 04:46:45;;;;;;;19.67;10.40;;;7.40;99.90;;;;;;5058436;28;20028;-44
2023/02/11 04:49:13;;;;;;;18.27;10.52;;;7.40;99.90;;;;;;5059323;28;20456;-44
2023/02/11 04:51:39;;;;;;;14.93;9.73;;;7.40;99.90;;;;;;5059108;28;20072;-44
2023/02/11 04:54:04;;;;;;;16.90;10.07;;;7.40;99.90;;;;;;5058008;28;20119;-44
2023/02/11 04:56:30;;;;;;;18.15;9.52;;;7.40;99.90;;;;;;5058684;28;20331;-44
2023/02/11 04:58:55;;;;;;;16.65;10.65;;;7.40;99.90;;;;;;5058684;28;20024;-43
2023/02/11 05:01:21;;;;;;;17.60;9.15;;;7.40;99.90;;;;;;5058109;28;20050;-43
2023/02/11 05:03:47;;;;;;;18.65;10.30;;;7.40;99.90;;;;;;5058830;28;20036;-43
2023/02/11 05:06:12;;;;;;;28.95;11.50;;;7.40;99.90;;;;;;5059645;28;20797;-43
2023/02/11 05:08:38;;;;;;;23.52;10.55;;;7.40;99.90;;;;;;5056869;28;20029;-43
2023/02/11 05:11:04;;;;;;;19.30;9.73;;;7.40;99.90;;;;;;5058713;28;20081;-43
2023/02/11 05:13:30;;;;;;;18.17;11.02;;;7.40;99.90;;;;;;5058960;28;20082;-43
2023/02/11 05:15:58;;;;;;;21.35;12.60;;;7.40;99.90;;;;;;5057412;28;20144;-42
2023/02/11 05:18:23;;;;;;;16.80;10.25;;;7.40;99.90;;;;;;5059315;28;20549;-43
2023/02/11 05:20:49;;;;;;;16.63;10.10;;;7.40;99.90;;;;;;5058472;28;20543;-43
2023/02/11 05:23:14;;;;;;;21.25;10.70;;;7.40;99.90;;;;;;5058376;28;20032;-43
2023/02/11 05:25:43;;;;;;;21.10;11.45;;;7.40;99.90;;;;;;5059063;28;20139;-44
2023/02/11 05:28:08;;;;;;;22.08;11.95;;;7.40;99.90;;;;;;5057501;28;20464;-43
2023/02/11 05:30:34;;;;;;;19.73;10.98;;;7.50;99.90;;;;;;5058799;28;20039;-44
2023/02/11 05:33:00;;;;;;;17.17;10.45;;;7.40;99.90;;;;;;5059004;28;20045;-44
2023/02/11 05:35:25;;;;;;;20.70;11.77;;;7.40;99.90;;;;;;5059136;28;20028;-44
2023/02/11 05:37:51;;;;;;;20.77;10.77;;;7.50;99.90;;;;;;5058595;28;20032;-44
2023/02/11 05:40:17;;;;;;;18.73;10.75;;;7.50;99.90;;;;;;5059456;28;20025;-44
2023/02/11 05:42:42;;;;;;;21.25;10.95;;;7.50;99.90;;;;;;5061234;28;20054;-42
2023/02/11 05:45:08;;;;;;;22.55;10.30;;;7.50;99.90;;;;;;5062307;28;20021;-42
2023/02/11 05:47:34;;;;;;;21.20;11.23;;;7.50;99.90;;;;;;5063130;28;20039;-42
2023/02/11 05:49:59;;;;;;;22.10;11.40;;;7.50;99.90;;;;;;5061703;28;20020;-43
2023/02/11 05:52:25;;;;;;;21.17;11.02;;;7.50;99.90;;;;;;5062567;28;20032;-42
2023/02/11 05:54:50;;;;;;;22.20;11.05;;;7.50;99.90;;;;;;5061675;28;20036;-43
2023/02/11 05:57:16;;;;;;;15.63;10.52;;;7.50;99.90;;;;;;5062083;28;20117;-43
2023/02/11 05:59:42;;;;;;;24.70;11.60;;;7.50;99.90;;;;;;5062099;28;20509;-44
2023/02/11 06:02:08;;;;;;;16.70;10.88;;;7.50;99.90;;;;;;5061441;28;20064;-44
2023/02/11 06:04:34;;;;;;;15.88;10.52;;;7.50;99.90;;;;;;5061175;28;20021;-44
2023/02/11 06:07:00;;;;;;;26.17;11.60;;;7.50;99.90;;;;;;5061967;28;20071;-44
2023/02/11 06:09:26;;;;;;;18.50;11.57;;;7.50;99.90;;;;;;5061579;28;20175;-44
2023/02/11 06:11:52;;;;;;;22.65;12.15;;;7.50;99.90;;;;;;5060837;28;20300;-43
2023/02/11 06:14:20;;;;;;;19.58;11.80;;;7.50;99.90;;;;;;5062366;28;20465;-44
2023/02/11 06:16:46;;;;;;;22.27;12.00;;;7.50;99.90;;;;;;5061638;28;20069;-43
2023/02/11 06:19:12;;;;;;;29.35;17.45;;;7.40;99.90;;;;;;5060982;28;20442;-43
2023/02/11 06:21:38;;;;;;;27.63;16.35;;;7.40;99.90;;;;;;5061792;28;20036;-44
2023/02/11 06:24:04;;;;;;;26.98;15.65;;;7.40;99.90;;;;;;5061675;28;20025;-44
2023/02/11 06:26:30;;;;;;;28.60;15.85;;;7.40;99.90;;;;;;5061617;28;20035;-44
2023/02/11 06:28:59;;;;;;;21.10;12.80;;;7.40;99.90;;;;;;5061232;28;20044;-44
2023/02/11 06:31:24;;;;;;;25.42;14.30;;;7.40;99.90;;;;;;5061942;28;20032;-42
2023/02/11 06:33:50;;;;;;;21.92;13.80;;;7.40;99.90;;;;;;5060975;28;20090;-41
2023/02/11 06:36:19;;;;;;;21.33;14.35;;;7.40;99.90;;;;;;5061730;28;20036;-43
2023/02/11 06:38:48;;;;;;;22.55;13.50;;;7.40;99.90;;;;;;5061868;28;20097;-43
2023/02/11 06:41:16;;;;;;;20.98;13.40;;;7.40;99.90;;;;;;5061860;28;20765;-42
2023/02/11 06:43:42;;;;;;;20.00;12.15;;;7.40;99.90;;;;;;5061378;28;20476;-42
2023/02/11 06:46:08;;;;;;;18.05;11.73;;;7.40;99.90;;;;;;5060210;28;20410;-43
2023/02/11 06:48:34;;;;;;;23.00;13.32;;;7.40;99.90;;;;;;5060813;28;20021;-42
2023/02/11 06:51:05;;;;;;;22.90;13.90;;;7.40;99.90;;;;;;5060799;28;20480;-43
2023/02/11 06:53:56;;;;;;;24.10;12.05;;;7.40;99.90;;;;;;5059910;28;20709;-43
2023/02/11 06:56:26;;;;;;;16.52;11.65;;;7.40;99.90;;;;;;5057186;28;20037;-43
2023/02/11 06:58:54;;;;;;;26.13;13.00;;;7.40;99.90;;;;;;5061072;28;20025;-43
2023/02/11 07:01:20;;;;;;;21.92;13.00;;;7.40;99.90;;;;;;5060664;28;20037;-43
2023/02/11 07:03:46;;;;;;;26.42;15.13;;;7.40;99.90;;;;;;5061545;28;20047;-43
2023/02/11 07:06:14;;;;;;;24.60;14.27;;;7.40;99.90;;;;;;5060683;28;20472;-43
2023/02/11 07:08:46;;;;;;;22.00;13.13;;;7.40;99.90;;;;;;5059989;28;20112;-43
2023/02/11 07:11:17;;;;;;;26.80;14.80;;;7.40;99.90;;;;;;5060448;28;20082;-44
2023/02/11 07:13:47;;;;;;;28.98;15.32;;;7.50;99.90;;;;;;5060570;28;20066;-44
2023/02/11 07:16:15;;;;;;;27.30;15.98;;;7.40;99.90;;;;;;5060637;28;20013;-44
2023/02/11 07:18:44;;;;;;;33.67;16.75;;;7.40;99.90;;;;;;5049911;28;20039;-43
2023/02/11 07:21:13;;;;;;;31.02;17.23;;;7.40;99.90;;;;;;5059970;28;20009;-44
2023/02/11 07:23:40;;;;;;;31.88;17.33;;;7.50;99.90;;;;;;5060392;28;20475;-44
2023/02/11 07:26:08;;;;;;;29.25;17.23;;;7.50;99.90;;;;;;5060824;28;20846;-44
2023/02/11 07:28:34;;;;;;;31.17;17.40;;;7.50;99.90;;;;;;5057278;28;20027;-44
2023/02/11 07:31:09;;;;;;;31.23;17.65;;;7.50;99.90;;;;;;5060841;28;20032;-44
2023/02/11 07:33:36;;;;;;;33.60;18.55;;;7.50;99.90;;;;;;5059545;28;20029;-44
2023/02/11 07:36:03;;;;;;;28.58;18.15;;;7.50;99.90;;;;;;5059283;28;20135;-43
2023/02/11 07:38:32;;;;;;;31.75;19.83;;;7.60;99.90;;;;;;5060316;28;20028;-44
2023/02/11 07:41:03;;;;;;;34.10;19.17;;;7.50;99.90;;;;;;5060042;28;20055;-44
2023/02/11 07:43:29;;;;;;;38.60;20.60;;;7.50;99.90;;;;;;5059482;28;20028;-44
2023/02/11 07:45:55;;;;;;;30.50;17.75;;;7.50;99.90;;;;;;5059463;28;20078;-43
2023/02/11 07:48:20;;;;;;;33.35;18.80;;;7.60;99.90;;;;;;5059997;28;20025;-43
2023/02/11 07:50:46;;;;;;;31.27;19.30;;;7.50;99.90;;;;;;5059075;28;20028;-43
2023/02/11 07:53:11;;;;;;;34.20;20.67;;;7.60;99.90;;;;;;5059141;28;20025;-43
2023/02/11 07:55:37;;;;;;;37.47;21.15;;;7.60;99.90;;;;;;5059801;28;20025;-43
2023/02/11 07:58:02;;;;;;;35.58;20.70;;;7.60;99.90;;;;;;5058805;28;20032;-43
2023/02/11 08:00:28;;;;;;;31.25;18.15;;;7.60;99.90;;;;;;5060250;28;20032;-43
2023/02/11 08:02:56;;;;;;;28.88;17.95;;;7.70;99.90;;;;;;5059041;28;20037;-43
2023/02/11 08:05:21;;;;;;;34.85;19.20;;;7.70;99.90;;;;;;5060130;28;20484;-43
2023/02/11 08:07:53;;;;;;;33.20;19.30;;;7.70;99.90;;;;;;5060132;28;20024;-42
2023/02/11 08:10:19;;;;;;;39.50;21.35;;;7.70;99.90;;;;;;5059450;28;20742;-43
2023/02/11 08:12:44;;;;;;;40.65;21.70;;;7.80;99.90;;;;;;5060284;28;20139;-43
2023/02/11 08:15:10;;;;;;;40.38;22.77;;;7.70;99.90;;;;;;5060247;28;20032;-43
2023/02/11 08:17:36;;;;;;;42.00;22.88;;;7.80;99.90;;;;;;5060245;28;20017;-43
2023/02/11 08:20:03;;;;;;;34.55;21.88;;;7.80;99.90;;;;;;5059959;28;20028;-43
2023/02/11 08:22:34;;;;;;;32.65;19.63;;;7.80;99.90;;;;;;5060286;28;20551;-43
2023/02/11 08:25:02;;;;;;;37.15;20.95;;;7.90;99.90;;;;;;5059365;28;20574;-44
2023/02/11 08:27:28;;;;;;;31.85;19.77;;;7.90;99.90;;;;;;5060220;28;20238;-44
2023/02/11 08:29:54;;;;;;;49.17;25.00;;;7.90;99.90;;;;;;5058912;28;20596;-44
2023/02/11 08:32:20;;;;;;;43.25;24.73;;;7.90;99.90;;;;;;5059076;28;20024;-44
2023/02/11 08:34:51;;;;;;;41.60;24.08;;;7.90;99.90;;;;;;5059142;28;20032;-44
2023/02/11 08:37:16;;;;;;;41.47;24.23;;;8.00;99.90;;;;;;5059702;28;20021;-43
2023/02/11 08:39:42;;;;;;;34.90;20.55;;;8.00;99.90;;;;;;5058552;28;20026;-43
2023/02/11 08:42:16;;;;;;;39.67;21.88;;;8.00;99.90;;;;;;5058955;28;20031;-43
2023/02/11 08:44:42;;;;;;;37.35;21.48;;;8.00;99.90;;;;;;5058783;28;20471;-44
2023/02/11 08:47:08;;;;;;;38.85;23.25;;;8.00;99.90;;;;;;5058639;28;20028;-44
2023/02/11 08:49:34;;;;;;;40.33;22.60;;;8.10;99.90;;;;;;5058530;28;20800;-44
2023/02/11 08:52:02;;;;;;;42.85;23.30;;;8.10;99.90;;;;;;5058234;28;20025;-44
2023/02/11 08:54:29;;;;;;;39.53;23.50;;;8.10;99.90;;;;;;5059653;28;20389;-44
2023/02/11 08:56:55;;;;;;;39.17;22.58;;;8.20;99.90;;;;;;5058519;28;20108;-43
2023/02/11 08:59:20;;;;;;;34.03;22.08;;;8.20;99.90;;;;;;5058732;28;20311;-43
2023/02/11 09:01:46;;;;;;;39.05;23.90;;;8.20;99.90;;;;;;5058945;28;20040;-43
2023/02/11 09:04:12;;;;;;;39.63;23.15;;;8.30;99.90;;;;;;5059473;28;20028;-43
2023/02/11 09:06:38;;;;;;;45.40;24.60;;;8.30;99.90;;;;;;5058319;28;20032;-43
2023/02/11 09:09:04;;;;;;;37.45;21.83;;;8.30;99.90;;;;;;5059752;28;20032;-43
2023/02/11 09:11:34;;;;;;;38.92;22.15;;;8.30;99.90;;;;;;5059443;28;20064;-43
2023/02/11 09:14:01;;;;;;;36.95;23.98;;;8.40;99.90;;;;;;5058506;28;20052;-44
2023/02/11 09:16:29;;;;;;;36.20;23.30;;;8.40;99.90;;;;;;5058289;28;20035;-44
2023/02/11 09:18:59;;;;;;;39.15;24.45;;;8.40;99.90;;;;;;5058982;28;20032;-44
2023/02/11 09:21:25;;;;;;;38.25;24.38;;;8.50;99.90;;;;;;5058412;28;20028;-44
2023/02/11 09:23:51;;;;;;;46.95;26.10;;;8.50;99.90;;;;;;5058414;28;20034;-44
2023/02/11 09:26:22;;;;;;;42.53;25.65;;;8.50;99.90;;;;;;5059584;28;20195;-43
2023/02/11 09:28:57;;;;;;;32.55;21.70;;;8.50;99.90;;;;;;5057972;28;20071;-43
2023/02/11 09:31:27;;;;;;;37.22;23.20;;;8.60;99.90;;;;;;5058892;28;20032;-43
2023/02/11 09:33:56;;;;;;;37.05;23.08;;;8.70;99.90;;;;;;5059229;28;20834;-43
2023/02/11 09:36:24;;;;;;;40.03;24.77;;;8.70;99.90;;;;;;5058270;28;20135;-43
2023/02/11 09:38:50;;;;;;;35.85;23.38;;;8.70;99.90;;;;;;5059401;28;20032;-43
2023/02/11 09:41:21;;;;;;;43.63;26.48;;;8.80;99.90;;;;;;5057873;28;20025;-44
2023/02/11 09:43:58;;;;;;;40.42;23.58;;;8.90;99.90;;;;;;5058127;28;20049;-43
2023/02/11 09:46:26;;;;;;;37.53;24.40;;;8.80;99.90;;;;;;5058927;28;20080;-43
2023/02/11 09:48:55;;;;;;;40.47;25.05;;;8.90;99.90;;;;;;5057341;28;20036;-43
2023/02/11 09:51:56;;;;;;;35.25;22.33;;;8.90;99.90;;;;;;5058765;28;20036;-43
2023/02/11 09:54:39;;;;;;;36.45;22.60;;;9.00;99.90;;;;;;5052212;28;20051;-43
2023/02/11 09:57:07;;;;;;;38.35;24.92;;;9.00;99.90;;;;;;5058346;28;20066;-43
2023/02/11 09:59:33;;;;;;;33.67;22.25;;;9.10;99.90;;;;;;5058662;28;20032;-44
2023/02/11 10:02:16;;;;;;;46.55;26.80;;;9.10;99.90;;;;;;5058110;28;20929;-44
2023/02/11 10:04:48;;;;;;;42.28;24.02;;;9.10;99.90;;;;;;5058372;28;20649;-44
2023/02/11 10:07:53;;;;;;;40.15;25.05;;;9.20;99.90;;;;;;5058199;28;20102;-44
2023/02/11 10:10:37;;;;;;;37.58;23.60;;;9.20;99.90;;;;;;5058210;28;20028;-44
2023/02/11 10:13:22;;;;;;;34.13;21.58;;;9.20;99.90;;;;;;5058433;28;20086;-43
2023/02/11 10:16:02;;;;;;;32.05;19.65;;;9.30;99.90;;;;;;5058381;28;20370;-43
2023/02/11 10:19:15;;;;;;;34.47;22.40;;;9.30;99.90;;;;;;5057761;28;20032;-43
2023/02/11 10:22:00;;;;;;;34.45;21.20;;;9.40;99.90;;;;;;5038531;28;20079;-43
2023/02/11 10:24:27;;;;;;;30.38;21.45;;;9.30;99.90;;;;;;5054607;28;20064;-43
2023/02/11 10:26:53;;;;;;;34.33;21.17;;;9.40;99.90;;;;;;5057974;28;20680;-43
2023/02/11 10:29:30;;;;;;;28.98;20.23;;;9.40;99.90;;;;;;5059720;28;20490;-43
2023/02/11 10:31:57;;;;;;;27.25;18.13;;;9.40;99.90;;;;;;5061083;28;20143;-43
2023/02/11 10:34:23;;;;;;;33.35;22.05;;;9.50;99.90;;;;;;5061230;28;20047;-43
2023/02/11 10:36:49;;;;;;;33.97;22.67;;;9.50;99.90;;;;;;5061498;28;20020;-43
2023/02/11 10:39:17;;;;;;;34.47;21.30;;;9.50;99.90;;;;;;5061209;28;20024;-43
2023/02/11 10:42:11;;;;;;;33.95;21.92;;;9.60;99.90;;;;;;5061544;28;20025;-43
2023/02/11 10:44:41;;;;;;;32.05;22.67;;;9.60;99.90;;;;;;5061287;28;20024;-46
2023/02/11 10:47:31;;;;;;;39.53;22.77;;;9.70;99.90;;;;;;5062081;28;20111;-43
2023/02/11 10:50:02;;;;;;;29.50;21.00;;;9.70;99.90;;;;;;5060474;28;20388;-43
2023/02/11 10:52:29;;;;;;;27.55;19.23;;;9.80;99.90;;;;;;5062048;28;20737;-43
2023/02/11 10:55:29;;;;;;;32.30;20.95;;;9.80;99.90;;;;;;5061016;28;20048;-43
2023/02/11 10:57:59;;;;;;;30.63;22.50;;;9.90;99.90;;;;;;5056526;28;20084;-44
2023/02/11 11:00:35;;;;;;;24.27;17.70;;;9.90;99.90;;;;;;5060075;28;20028;-44
2023/02/11 11:03:06;;;;;;;25.88;18.95;;;9.90;99.90;;;;;;5060860;28;20080;-44
2023/02/11 11:05:36;;;;;;;28.95;20.35;;;10.00;99.90;;;;;;5060614;28;20744;-44
2023/02/11 11:08:05;;;;;;;30.63;20.95;;;10.10;99.90;;;;;;5060980;28;20069;-44
2023/02/11 11:10:42;;;;;;;33.75;21.20;;;10.10;99.90;;;;;;5061072;28;20032;-44
2023/02/11 11:13:26;;;;;;;32.13;21.05;;;10.20;99.90;;;;;;5059996;28;20032;-44
2023/02/11 11:16:11;;;;;;;31.95;20.50;;;10.30;99.90;;;;;;5061012;28;20036;-44
2023/02/11 11:18:39;;;;;;;26.83;19.00;;;10.40;99.90;;;;;;5061296;28;20086;-44
2023/02/11 11:21:11;;;;;;;28.42;19.63;;;10.40;99.90;;;;;;5059989;28;20510;-44
2023/02/11 11:23:38;;;;;;;25.35;18.83;;;10.40;99.90;;;;;;5061382;28;20058;-44
2023/02/11 11:26:11;;;;;;;26.77;19.48;;;10.50;99.90;;;;;;5060362;28;20027;-44
2023/02/11 11:28:45;;;;;;;25.33;17.98;;;10.50;99.90;;;;;;5060629;28;20036;-44
2023/02/11 11:31:18;;;;;;;27.60;19.08;;;10.40;99.90;;;;;;5060169;28;20039;-44
2023/02/11 11:33:45;;;;;;;27.63;20.13;;;10.40;99.90;;;;;;5060513;28;20036;-43
2023/02/11 11:36:18;;;;;;;28.75;20.08;;;10.30;99.90;;;;;;5059904;28;20024;-45
2023/02/11 11:39:03;;;;;;;28.55;19.08;;;10.40;99.90;;;;;;5040074;28;20489;-43
2023/02/11 11:41:50;;;;;;;27.25;19.13;;;10.40;99.90;;;;;;5056750;28;20067;-43
2023/02/11 11:44:35;;;;;;;23.10;17.35;;;10.50;99.90;;;;;;5060665;28;20555;-43
2023/02/11 11:47:12;;;;;;;27.10;19.55;;;10.50;99.90;;;;;;5059037;28;20128;-43
2023/02/11 11:49:49;;;;;;;26.48;17.88;;;10.50;99.90;;;;;;5060138;28;20037;-44
2023/02/11 11:52:25;;;;;;;26.67;18.30;;;10.50;99.90;;;;;;5060453;28;20569;-43
2023/02/11 11:55:04;;;;;;;22.98;17.42;;;10.50;99.90;;;;;;5059279;28;20072;-43
2023/02/11 11:57:32;;;;;;;24.13;17.15;;;10.50;99.90;;;;;;5060040;28;20028;-43
2023/02/11 11:59:58;;;;;;;24.73;16.85;;;10.60;99.90;;;;;;5059221;28;20036;-43
2023/02/11 12:02:50;;;;;;;22.10;16.30;;;10.70;99.90;;;;;;5058636;28;20078;-43
2023/02/11 12:05:42;;;;;;;23.77;16.08;;;10.80;99.90;;;;;;5060664;28;20030;-43
2023/02/11 12:08:10;;;;;;;23.05;16.90;;;10.90;99.90;;;;;;5059252;28;20020;-43
2023/02/11 12:10:38;;;;;;;19.42;15.18;;;10.90;99.90;;;;;;5057396;28;20071;-44
2023/02/11 12:13:17;;;;;;;23.88;15.65;;;11.00;99.90;;;;;;5055339;28;20025;-43
2023/02/11 12:16:03;;;;;;;23.23;15.32;;;11.00;99.90;;;;;;5059783;28;20103;-44
2023/02/11 12:18:47;;;;;;;19.63;14.05;;;11.00;99.90;;;;;;5057008;28;20387;-44
2023/02/11 12:21:34;;;;;;;16.27;13.88;;;11.10;99.90;;;;;;5058622;28;20483;-43
2023/02/11 12:24:17;;;;;;;17.50;13.13;;;11.10;99.90;;;;;;5055445;28;20246;-44
2023/02/11 12:27:16;;;;;;;18.85;13.10;;;11.10;99.90;;;;;;5058531;28;20017;-43
2023/02/11 12:30:14;;;;;;;15.63;11.45;;;11.10;99.90;;;;;;5059275;28;20044;-44
2023/02/11 12:32:59;;;;;;;22.42;14.35;;;11.10;99.90;;;;;;5059790;28;20040;-43
2023/02/11 12:35:38;;;;;;;16.33;13.10;;;11.10;99.90;;;;;;5060752;28;20036;-43
2023/02/11 12:38:24;;;;;;;13.82;10.93;;;11.10;99.90;;;;;;5058705;28;20090;-44
2023/02/11 12:41:10;;;;;;;16.55;12.38;;;11.20;99.90;;;;;;5039488;28;20491;-43
2023/02/11 12:43:39;;;;;;;15.73;11.65;;;11.20;99.90;;;;;;5056937;28;20829;-42
2023/02/11 12:46:36;;;;;;;13.10;10.68;;;11.30;99.90;;;;;;5058541;28;20052;-44
2023/02/11 12:49:11;;;;;;;14.38;10.15;;;11.40;99.90;;;;;;5057785;28;20540;-42
2023/02/11 12:51:54;;;;;;;11.05;9.43;;;11.40;99.90;;;;;;5057225;28;20032;-43
2023/02/11 12:54:28;;;;;;;14.27;11.05;;;11.50;99.90;;;;;;5055868;28;20032;-43
2023/02/11 12:57:16;;;;;;;13.60;10.95;;;11.50;99.90;;;;;;5058713;28;20125;-43
2023/02/11 13:00:18;;;;;;;17.10;11.20;;;11.60;99.90;;;;;;5057906;28;20483;-43
2023/02/11 13:03:02;;;;;;;18.93;12.30;;;11.60;99.90;;;;;;5058557;28;20482;-43